Login to view Products
 
Friday, December 02, 2022 (13:13 UTC)
Sharjah International Airport
ICAO: OMSJ
IATA: SHJ
  • METAR OMSJ 021300Z 29008KT CAVOK 28/19 Q1013 NOSIG=
  • TAF OMSJ 021100Z 0212/0318 31010KT 9999 SCT040 BECMG 0216/0218 14005KT PROB30 0221/0305 3000 HZ BKN014 BECMG 0308/0310 30010KT BECMG 0316/0318 VRB02KT=
13-- D:\Input Parser\Destinations\Final\11\OMSJ_TAF.txt-- 02/12/2022-- 02/12/2022-- 3